Kingfield, Maine
Current Conditions -  °F | °C
As of 10:15 PM on Friday 28 Nov 2014 (Local Time) from KWVL Reporting Station
Clear Clear  
Wind Chill: -7°   Ceiling: Unl
Heat Index: -7°   Visibility: 10mi
Dew Point: -13°   Wind: 3mph
Humidity: 63%   Direction: 300°WNW
Pressure: 30.08"   Gusts: NA
Location:  44.96°N, 70.15°W
Report Text: KWVL 290315Z 30003KT 10SM CLR M07/M13 A3008 RMK AO1
Loading
Personal Weather Stations






























Interactive Weather Map New forecast layout! Learn more

10-Day Weather Forecast

Advertisements
Track Severe Weather on mobile